Terminal Aerodrome Forecast
Issued by NWS

Home | Current Version | Previous Version | Text Only | Print | Product List | Glossary On
Versions: 1 2 3 4 5 6 7 8 9 10 11 12 13 14 15 16 17 18 19 20 21 22 23 24 25 26 27 28 29
845
FTUS41 KBUF 070520
TAFIAG
TAF
KIAG 070520Z 0706/0806 22009KT P6SM BKN070
     FM071000 23008KT P6SM BKN180
     FM071400 19008KT P6SM BKN130
     FM071800 19010KT P6SM BKN110
     FM072200 17007KT P6SM BKN070=

USA.gov is the U.S. government's official web portal to all federal, state and local government web resources and services.